Lobachsville, Pennsylvania
Current Conditions -  °F | °C
As of 7:54 PM on Saturday 25 Oct 2014 (Local Time) from KRDG Reporting Station
Few Clouds Few Clouds  
Wind Chill: 63°   Ceiling: Unl
Heat Index: 63°   Visibility: 10mi
Dew Point: 44°   Wind: 3mph
Humidity: 50%   Direction: 230°SW
Pressure: 29.66"   Gusts: NA
Location:  40.3836°N, 75.7884°W
Report Text: KRDG 252354Z AUTO 23003KT 10SM FEW060 17/07 A2966 RMK AO2 SLP050 T01720067 10206 20172 55010
Loading
Personal Weather Stations






























Interactive Weather Map
Tropical Storm Tracking
New forecast layout! Learn more

10-Day Weather Forecast

Advertisements
Track Severe Weather on mobile